Camp Grove, Illinois
Current Conditions -  °F | °C
As of 4:35 PM on Thursday 20 Nov 2014 (Local Time) from KC75 Reporting Station
Clear Clear  
Wind Chill: 17°   Ceiling: Unl
Heat Index: 27°   Visibility: 10mi
Dew Point:   Wind: 9mph
Humidity: 43%   Direction: 300°WNW
Pressure: 30.19"   Gusts: NA
Location:  41.08°N, 89.63°W
Report Text: KC75 202235Z AUTO 30008KT 10SM CLR M03/M14 A3019 RMK AO2 T10301140
Loading
Personal Weather Stations






























Interactive Weather Map New forecast layout! Learn more

10-Day Weather Forecast

Advertisements
Track Severe Weather on mobile